Aérodrome :
LOGIN :

S'inscrire | Disclaimer

   EN    FR    IT 

 










Légende :    VFR   VFR Marginal   IFR   IFR Intensif   IFR Très Intensif
Visi : 
Plafond : 
>= 8 km
>= 3000ft
5 à 8 km
1000 à 3000 ft
1500m à 5 km
500 à 1000 ft
800 à 1500m
200 à 500 ft
< 800m
< 200 ft
Symboles :   Orages  Brouillard  Fortes neiges  Fortes précipitations  Vent > 20 kt
SIGMETs :   Divers  Orages  Givrage  Turbulence  Onde Orograph.  Cendres Volcan.






- Altitude de l'aérodrome : 120 ft
- Code IATA : MME


EGNV - Durham Tees valley

DERNIER METAR :
  • 151250Z 24005KT 9999 FEW015 SCT044 13/09 Q1001

METARs EXPIRÉS :
  • 151220Z 24004KT 220V290 9999 FEW015 SCT020 12/09 Q1001
  • 151150Z 24004KT 210V270 9999 FEW015 BKN022 12/09 Q1002
  • 151120Z 26004KT 220V300 9999 BKN015 12/09 Q1002
  • 151050Z 26004KT 230V310 9999 SCT013 SCT045 11/09 Q1002
  • 151020Z 30007KT 270V330 9999 FEW009 SCT012 11/09 Q1002

TAF TAF EGNV
Valide du 15 à 12h jusqu'au 15 à 21h UTC


151109Z 1512/1521 30010KT 9999 SCT020
BECMG 1512/1514 21006KT
PROB30
TEMPO 1512/1518 8000 BKN009
ATIS : +44 9012 018 111



MET'MAP, la Météo Aéronautique d'un coup d'oeil ! - Copyright ORBIFLY Décembre 2007 - Disclaimer

ORBIFLY MET'MAP TEAM :

Programmation & Développement : Alexandra Zaïnal
Conception & Développement : Baudouin d'Aumeries
Co-Programmation & Développement : Marc-Olivier Méhu
Soutien technique & logistique : Manuel Goepfert

Contact : metmap@orbifly.com




SOURCES & CREDITS :

   NOAA